sensor_id;sensor_type;location;lat;lon;timestamp;temperature;humidity
24436;DHT22;12616;52.470;13.436;2023-06-04T00:02:02;13.30;99.90
24436;DHT22;12616;52.470;13.436;2023-06-04T00:04:29;13.50;99.10
24436;DHT22;12616;52.470;13.436;2023-06-04T00:06:56;13.30;99.90
24436;DHT22;12616;52.470;13.436;2023-06-04T00:09:23;13.50;95.80
24436;DHT22;12616;52.470;13.436;2023-06-04T00:11:50;13.50;95.80
24436;DHT22;12616;52.470;13.436;2023-06-04T00:14:17;13.60;95.80
24436;DHT22;12616;52.470;13.436;2023-06-04T00:16:45;13.60;96.80
24436;DHT22;12616;52.470;13.436;2023-06-04T00:19:12;13.50;96.60
24436;DHT22;12616;52.470;13.436;2023-06-04T00:21:39;13.40;96.40
24436;DHT22;12616;52.470;13.436;2023-06-04T00:24:06;13.40;92.00
24436;DHT22;12616;52.470;13.436;2023-06-04T00:26:33;13.50;99.90
24436;DHT22;12616;52.470;13.436;2023-06-04T00:29:00;13.30;97.40
24436;DHT22;12616;52.470;13.436;2023-06-04T00:31:27;13.50;99.90
24436;DHT22;12616;52.470;13.436;2023-06-04T00:33:55;13.40;98.40
24436;DHT22;12616;52.470;13.436;2023-06-04T00:36:22;13.40;98.40
24436;DHT22;12616;52.470;13.436;2023-06-04T00:38:49;13.30;98.60
24436;DHT22;12616;52.470;13.436;2023-06-04T00:41:16;13.30;99.10
24436;DHT22;12616;52.470;13.436;2023-06-04T00:43:43;13.20;99.00
24436;DHT22;12616;52.470;13.436;2023-06-04T00:46:11;13.40;99.90
24436;DHT22;12616;52.470;13.436;2023-06-04T00:48:43;13.20;99.90
24436;DHT22;12616;52.470;13.436;2023-06-04T00:51:12;13.20;99.90
24436;DHT22;12616;52.470;13.436;2023-06-04T00:56:06;12.90;95.50
24436;DHT22;12616;52.470;13.436;2023-06-04T00:58:37;12.80;99.90
24436;DHT22;12616;52.470;13.436;2023-06-04T01:01:05;12.30;99.90
24436;DHT22;12616;52.470;13.436;2023-06-04T01:03:35;12.80;99.90
24436;DHT22;12616;52.470;13.436;2023-06-04T01:06:13;12.70;99.90
24436;DHT22;12616;52.470;13.436;2023-06-04T01:08:48;12.70;99.90
24436;DHT22;12616;52.470;13.436;2023-06-04T01:11:16;12.80;99.90
24436;DHT22;12616;52.470;13.436;2023-06-04T01:13:43;12.80;99.90
24436;DHT22;12616;52.470;13.436;2023-06-04T01:16:11;12.80;99.90
24436;DHT22;12616;52.470;13.436;2023-06-04T01:18:40;12.70;99.90
24436;DHT22;12616;52.470;13.436;2023-06-04T01:21:08;12.50;99.90
24436;DHT22;12616;52.470;13.436;2023-06-04T01:23:46;12.50;99.90
24436;DHT22;12616;52.470;13.436;2023-06-04T01:26:13;12.50;99.90
24436;DHT22;12616;52.470;13.436;2023-06-04T01:28:40;12.60;99.90
24436;DHT22;12616;52.470;13.436;2023-06-04T01:31:09;12.70;99.90
24436;DHT22;12616;52.470;13.436;2023-06-04T01:33:36;12.40;99.90
24436;DHT22;12616;52.470;13.436;2023-06-04T01:36:04;12.40;99.90
24436;DHT22;12616;52.470;13.436;2023-06-04T01:38:31;12.30;99.90
24436;DHT22;12616;52.470;13.436;2023-06-04T01:40:59;12.20;99.90
24436;DHT22;12616;52.470;13.436;2023-06-04T01:43:27;12.00;99.90
24436;DHT22;12616;52.470;13.436;2023-06-04T01:45:54;12.00;99.90
24436;DHT22;12616;52.470;13.436;2023-06-04T01:48:22;11.90;99.90
24436;DHT22;12616;52.470;13.436;2023-06-04T01:50:49;12.00;99.90
24436;DHT22;12616;52.470;13.436;2023-06-04T01:53:16;12.00;99.90
24436;DHT22;12616;52.470;13.436;2023-06-04T01:55:42;12.00;99.90
24436;DHT22;12616;52.470;13.436;2023-06-04T01:58:11;12.20;99.90
24436;DHT22;12616;52.470;13.436;2023-06-04T02:00:38;12.40;99.90
24436;DHT22;12616;52.470;13.436;2023-06-04T02:03:04;12.20;99.90
24436;DHT22;12616;52.470;13.436;2023-06-04T02:05:31;12.00;99.90
24436;DHT22;12616;52.470;13.436;2023-06-04T02:07:58;11.90;99.90
24436;DHT22;12616;52.470;13.436;2023-06-04T02:10:27;11.70;99.90
24436;DHT22;12616;52.470;13.436;2023-06-04T02:12:56;11.80;99.90
24436;DHT22;12616;52.470;13.436;2023-06-04T02:15:25;11.60;99.90
24436;DHT22;12616;52.470;13.436;2023-06-04T02:17:55;11.60;99.90
24436;DHT22;12616;52.470;13.436;2023-06-04T02:20:23;11.60;99.90
24436;DHT22;12616;52.470;13.436;2023-06-04T02:22:50;11.50;99.90
24436;DHT22;12616;52.470;13.436;2023-06-04T02:25:17;11.40;99.90
24436;DHT22;12616;52.470;13.436;2023-06-04T02:27:44;11.30;99.90
24436;DHT22;12616;52.470;13.436;2023-06-04T02:30:11;11.30;99.90
24436;DHT22;12616;52.470;13.436;2023-06-04T02:32:39;11.30;99.90
24436;DHT22;12616;52.470;13.436;2023-06-04T02:35:06;11.40;99.90
24436;DHT22;12616;52.470;13.436;2023-06-04T02:37:33;11.40;99.90
24436;DHT22;12616;52.470;13.436;2023-06-04T02:40:00;11.00;99.90
24436;DHT22;12616;52.470;13.436;2023-06-04T02:42:27;11.20;99.90
24436;DHT22;12616;52.470;13.436;2023-06-04T02:44:54;11.20;99.90
24436;DHT22;12616;52.470;13.436;2023-06-04T02:47:20;11.20;99.90
24436;DHT22;12616;52.470;13.436;2023-06-04T02:49:49;11.20;99.90
24436;DHT22;12616;52.470;13.436;2023-06-04T02:52:15;11.30;99.90
24436;DHT22;12616;52.470;13.436;2023-06-04T02:54:42;11.20;99.90
24436;DHT22;12616;52.470;13.436;2023-06-04T02:57:09;11.30;99.90
24436;DHT22;12616;52.470;13.436;2023-06-04T02:59:36;11.30;99.90
24436;DHT22;12616;52.470;13.436;2023-06-04T03:02:04;11.20;99.90
24436;DHT22;12616;52.470;13.436;2023-06-04T03:04:31;11.20;99.90
24436;DHT22;12616;52.470;13.436;2023-06-04T03:07:01;11.20;99.90
24436;DHT22;12616;52.470;13.436;2023-06-04T03:09:28;11.10;99.90
24436;DHT22;12616;52.470;13.436;2023-06-04T03:11:57;11.20;99.90
24436;DHT22;12616;52.470;13.436;2023-06-04T03:14:26;11.20;99.90
24436;DHT22;12616;52.470;13.436;2023-06-04T03:16:58;11.20;99.90
24436;DHT22;12616;52.470;13.436;2023-06-04T03:19:26;11.20;99.90
24436;DHT22;12616;52.470;13.436;2023-06-04T03:21:53;11.30;99.90
24436;DHT22;12616;52.470;13.436;2023-06-04T03:24:23;11.40;99.90
24436;DHT22;12616;52.470;13.436;2023-06-04T03:26:50;11.40;99.90
24436;DHT22;12616;52.470;13.436;2023-06-04T03:29:17;11.40;99.90
24436;DHT22;12616;52.470;13.436;2023-06-04T03:31:44;11.40;99.90
24436;DHT22;12616;52.470;13.436;2023-06-04T03:34:11;11.50;99.90
24436;DHT22;12616;52.470;13.436;2023-06-04T03:36:38;11.30;99.90
24436;DHT22;12616;52.470;13.436;2023-06-04T03:39:05;11.30;99.90
24436;DHT22;12616;52.470;13.436;2023-06-04T03:41:33;11.70;99.90
24436;DHT22;12616;52.470;13.436;2023-06-04T03:44:00;11.60;99.90
24436;DHT22;12616;52.470;13.436;2023-06-04T03:46:27;11.60;99.90
24436;DHT22;12616;52.470;13.436;2023-06-04T03:48:57;11.50;99.90
24436;DHT22;12616;52.470;13.436;2023-06-04T03:51:24;11.60;99.90
24436;DHT22;12616;52.470;13.436;2023-06-04T03:53:51;11.70;99.90
24436;DHT22;12616;52.470;13.436;2023-06-04T03:56:37;11.80;99.90
24436;DHT22;12616;52.470;13.436;2023-06-04T03:59:04;11.60;99.90
24436;DHT22;12616;52.470;13.436;2023-06-04T04:01:31;12.10;99.90
24436;DHT22;12616;52.470;13.436;2023-06-04T04:03:58;11.70;99.90
24436;DHT22;12616;52.470;13.436;2023-06-04T04:06:25;12.10;99.90
24436;DHT22;12616;52.470;13.436;2023-06-04T04:08:52;11.90;99.90
24436;DHT22;12616;52.470;13.436;2023-06-04T04:11:19;12.00;99.90
24436;DHT22;12616;52.470;13.436;2023-06-04T04:13:47;12.00;99.90
24436;DHT22;12616;52.470;13.436;2023-06-04T04:16:14;12.00;99.90
24436;DHT22;12616;52.470;13.436;2023-06-04T04:18:42;12.00;99.90
24436;DHT22;12616;52.470;13.436;2023-06-04T04:21:09;12.10;99.90
24436;DHT22;12616;52.470;13.436;2023-06-04T04:23:37;12.10;99.90
24436;DHT22;12616;52.470;13.436;2023-06-04T04:26:05;12.10;99.90
24436;DHT22;12616;52.470;13.436;2023-06-04T04:28:32;12.20;99.90
24436;DHT22;12616;52.470;13.436;2023-06-04T04:31:01;12.20;99.90
24436;DHT22;12616;52.470;13.436;2023-06-04T04:33:28;12.20;99.90
24436;DHT22;12616;52.470;13.436;2023-06-04T04:35:58;12.20;99.90
24436;DHT22;12616;52.470;13.436;2023-06-04T04:38:26;12.30;99.90
24436;DHT22;12616;52.470;13.436;2023-06-04T04:40:54;12.30;99.90
24436;DHT22;12616;52.470;13.436;2023-06-04T04:43:28;12.30;99.90
24436;DHT22;12616;52.470;13.436;2023-06-04T04:45:55;12.30;99.90
24436;DHT22;12616;52.470;13.436;2023-06-04T04:48:24;12.40;99.90
24436;DHT22;12616;52.470;13.436;2023-06-04T04:50:51;12.40;99.90
24436;DHT22;12616;52.470;13.436;2023-06-04T04:53:18;12.40;99.90
24436;DHT22;12616;52.470;13.436;2023-06-04T04:55:45;12.40;99.90
24436;DHT22;12616;52.470;13.436;2023-06-04T04:58:12;12.40;99.90
24436;DHT22;12616;52.470;13.436;2023-06-04T05:00:39;12.50;99.90
24436;DHT22;12616;52.470;13.436;2023-06-04T05:03:06;12.60;99.90
24436;DHT22;12616;52.470;13.436;2023-06-04T05:05:34;12.70;99.90
24436;DHT22;12616;52.470;13.436;2023-06-04T05:08:01;12.60;99.90
24436;DHT22;12616;52.470;13.436;2023-06-04T05:10:28;12.70;99.90
24436;DHT22;12616;52.470;13.436;2023-06-04T05:12:56;12.90;99.90
24436;DHT22;12616;52.470;13.436;2023-06-04T05:15:24;12.70;99.90
24436;DHT22;12616;52.470;13.436;2023-06-04T05:17:52;12.70;99.90
24436;DHT22;12616;52.470;13.436;2023-06-04T05:20:20;12.80;99.90
24436;DHT22;12616;52.470;13.436;2023-06-04T05:22:49;13.20;99.90
24436;DHT22;12616;52.470;13.436;2023-06-04T05:25:17;13.10;99.90
24436;DHT22;12616;52.470;13.436;2023-06-04T05:27:44;13.20;99.90
24436;DHT22;12616;52.470;13.436;2023-06-04T05:30:15;13.30;99.90
24436;DHT22;12616;52.470;13.436;2023-06-04T05:35:09;13.50;99.90
24436;DHT22;12616;52.470;13.436;2023-06-04T05:37:37;13.60;99.90
24436;DHT22;12616;52.470;13.436;2023-06-04T05:40:08;13.70;99.90
24436;DHT22;12616;52.470;13.436;2023-06-04T05:42:36;13.70;99.90
24436;DHT22;12616;52.470;13.436;2023-06-04T05:45:03;13.70;99.90
24436;DHT22;12616;52.470;13.436;2023-06-04T05:47:30;13.80;99.90
24436;DHT22;12616;52.470;13.436;2023-06-04T05:49:57;13.90;99.90
24436;DHT22;12616;52.470;13.436;2023-06-04T05:52:24;13.90;99.90
24436;DHT22;12616;52.470;13.436;2023-06-04T05:54:51;14.10;99.90
24436;DHT22;12616;52.470;13.436;2023-06-04T05:57:20;14.10;99.90
24436;DHT22;12616;52.470;13.436;2023-06-04T05:59:49;14.20;99.90
24436;DHT22;12616;52.470;13.436;2023-06-04T06:02:16;14.30;99.90
24436;DHT22;12616;52.470;13.436;2023-06-04T06:04:43;14.40;99.90
24436;DHT22;12616;52.470;13.436;2023-06-04T06:07:10;14.50;99.90
24436;DHT22;12616;52.470;13.436;2023-06-04T06:09:37;14.50;99.90
24436;DHT22;12616;52.470;13.436;2023-06-04T06:12:04;14.50;99.90
24436;DHT22;12616;52.470;13.436;2023-06-04T06:14:33;14.60;99.90
24436;DHT22;12616;52.470;13.436;2023-06-04T06:17:01;14.80;99.90
24436;DHT22;12616;52.470;13.436;2023-06-04T06:19:28;14.90;99.90
24436;DHT22;12616;52.470;13.436;2023-06-04T06:21:55;14.90;99.90
24436;DHT22;12616;52.470;13.436;2023-06-04T06:24:24;15.00;99.90
24436;DHT22;12616;52.470;13.436;2023-06-04T06:26:51;15.10;99.90
24436;DHT22;12616;52.470;13.436;2023-06-04T06:29:18;15.30;99.90
24436;DHT22;12616;52.470;13.436;2023-06-04T06:31:46;15.80;99.90
24436;DHT22;12616;52.470;13.436;2023-06-04T06:34:13;15.50;99.90
24436;DHT22;12616;52.470;13.436;2023-06-04T06:36:40;15.50;99.90
24436;DHT22;12616;52.470;13.436;2023-06-04T06:39:07;15.60;99.90
24436;DHT22;12616;52.470;13.436;2023-06-04T06:41:34;16.00;99.90
24436;DHT22;12616;52.470;13.436;2023-06-04T06:44:01;15.80;99.90
24436;DHT22;12616;52.470;13.436;2023-06-04T06:46:28;16.00;99.90
24436;DHT22;12616;52.470;13.436;2023-06-04T06:48:56;15.90;99.90
24436;DHT22;12616;52.470;13.436;2023-06-04T06:51:23;16.00;99.90
24436;DHT22;12616;52.470;13.436;2023-06-04T06:53:50;16.10;99.90
24436;DHT22;12616;52.470;13.436;2023-06-04T06:56:36;16.40;99.90
24436;DHT22;12616;52.470;13.436;2023-06-04T06:59:02;16.20;99.90
24436;DHT22;12616;52.470;13.436;2023-06-04T07:01:29;16.40;99.90
24436;DHT22;12616;52.470;13.436;2023-06-04T07:03:59;16.40;99.90
24436;DHT22;12616;52.470;13.436;2023-06-04T07:06:26;16.50;99.90
24436;DHT22;12616;52.470;13.436;2023-06-04T07:08:53;16.50;99.90
24436;DHT22;12616;52.470;13.436;2023-06-04T07:13:47;16.70;99.90
24436;DHT22;12616;52.470;13.436;2023-06-04T07:16:14;16.80;99.90
24436;DHT22;12616;52.470;13.436;2023-06-04T07:18:44;16.90;99.90
24436;DHT22;12616;52.470;13.436;2023-06-04T07:21:12;16.90;99.90
24436;DHT22;12616;52.470;13.436;2023-06-04T07:23:39;17.00;99.90
24436;DHT22;12616;52.470;13.436;2023-06-04T07:26:06;17.10;99.90
24436;DHT22;12616;52.470;13.436;2023-06-04T07:28:33;17.20;99.90
24436;DHT22;12616;52.470;13.436;2023-06-04T07:31:00;17.20;99.90
24436;DHT22;12616;52.470;13.436;2023-06-04T07:33:27;17.20;99.90
24436;DHT22;12616;52.470;13.436;2023-06-04T07:35:55;17.30;99.90
24436;DHT22;12616;52.470;13.436;2023-06-04T07:38:23;17.30;99.90
24436;DHT22;12616;52.470;13.436;2023-06-04T07:40:50;17.20;99.90
24436;DHT22;12616;52.470;13.436;2023-06-04T07:43:17;17.30;99.90
24436;DHT22;12616;52.470;13.436;2023-06-04T07:45:44;17.40;99.90
24436;DHT22;12616;52.470;13.436;2023-06-04T07:48:10;17.50;99.90
24436;DHT22;12616;52.470;13.436;2023-06-04T07:50:37;17.90;99.90
24436;DHT22;12616;52.470;13.436;2023-06-04T07:53:05;17.70;99.90
24436;DHT22;12616;52.470;13.436;2023-06-04T07:55:33;17.70;99.90
24436;DHT22;12616;52.470;13.436;2023-06-04T07:58:01;17.70;99.90
24436;DHT22;12616;52.470;13.436;2023-06-04T08:00:28;17.70;99.90
24436;DHT22;12616;52.470;13.436;2023-06-04T08:02:54;17.80;99.90
24436;DHT22;12616;52.470;13.436;2023-06-04T08:05:22;17.80;99.90
24436;DHT22;12616;52.470;13.436;2023-06-04T08:07:49;17.80;99.90
24436;DHT22;12616;52.470;13.436;2023-06-04T08:10:16;17.90;99.90
24436;DHT22;12616;52.470;13.436;2023-06-04T08:12:44;17.90;99.90
24436;DHT22;12616;52.470;13.436;2023-06-04T08:15:11;17.90;99.90
24436;DHT22;12616;52.470;13.436;2023-06-04T08:17:38;17.90;99.90
24436;DHT22;12616;52.470;13.436;2023-06-04T08:20:06;18.00;99.90
24436;DHT22;12616;52.470;13.436;2023-06-04T08:22:34;18.00;99.90
24436;DHT22;12616;52.470;13.436;2023-06-04T08:25:01;18.10;99.90
24436;DHT22;12616;52.470;13.436;2023-06-04T08:27:29;18.00;99.90
24436;DHT22;12616;52.470;13.436;2023-06-04T08:29:57;18.10;99.90
24436;DHT22;12616;52.470;13.436;2023-06-04T08:32:24;18.20;99.90
24436;DHT22;12616;52.470;13.436;2023-06-04T08:34:51;18.50;99.90
24436;DHT22;12616;52.470;13.436;2023-06-04T08:37:18;18.20;99.90
24436;DHT22;12616;52.470;13.436;2023-06-04T08:39:45;18.30;99.90
24436;DHT22;12616;52.470;13.436;2023-06-04T08:42:22;18.30;99.90
24436;DHT22;12616;52.470;13.436;2023-06-04T08:44:53;18.40;99.90
24436;DHT22;12616;52.470;13.436;2023-06-04T08:47:22;18.50;99.90
24436;DHT22;12616;52.470;13.436;2023-06-04T08:49:51;18.50;99.90
24436;DHT22;12616;52.470;13.436;2023-06-04T08:52:18;18.60;99.90
24436;DHT22;12616;52.470;13.436;2023-06-04T08:54:48;18.50;99.90
24436;DHT22;12616;52.470;13.436;2023-06-04T08:57:17;18.40;99.90
24436;DHT22;12616;52.470;13.436;2023-06-04T08:59:45;18.40;99.90
24436;DHT22;12616;52.470;13.436;2023-06-04T09:02:12;18.50;99.90
24436;DHT22;12616;52.470;13.436;2023-06-04T09:04:40;18.60;99.90
24436;DHT22;12616;52.470;13.436;2023-06-04T09:07:09;18.60;99.90
24436;DHT22;12616;52.470;13.436;2023-06-04T09:09:38;18.70;99.90
24436;DHT22;12616;52.470;13.436;2023-06-04T09:12:09;18.80;99.90
24436;DHT22;12616;52.470;13.436;2023-06-04T09:14:36;18.80;99.90
24436;DHT22;12616;52.470;13.436;2023-06-04T09:17:03;18.90;99.90
24436;DHT22;12616;52.470;13.436;2023-06-04T09:19:30;18.90;99.90
24436;DHT22;12616;52.470;13.436;2023-06-04T09:21:59;19.40;99.90
24436;DHT22;12616;52.470;13.436;2023-06-04T09:24:39;19.10;99.90
24436;DHT22;12616;52.470;13.436;2023-06-04T09:27:10;19.20;99.90
24436;DHT22;12616;52.470;13.436;2023-06-04T09:29:37;19.30;99.90
24436;DHT22;12616;52.470;13.436;2023-06-04T09:32:04;19.60;99.90
24436;DHT22;12616;52.470;13.436;2023-06-04T09:34:31;19.40;99.90
24436;DHT22;12616;52.470;13.436;2023-06-04T09:36:59;19.50;99.90
24436;DHT22;12616;52.470;13.436;2023-06-04T09:39:26;19.50;99.90
24436;DHT22;12616;52.470;13.436;2023-06-04T09:41:59;19.40;99.90
24436;DHT22;12616;52.470;13.436;2023-06-04T09:44:29;19.60;99.90
24436;DHT22;12616;52.470;13.436;2023-06-04T09:46:56;19.60;99.90
24436;DHT22;12616;52.470;13.436;2023-06-04T09:49:23;19.50;99.90
24436;DHT22;12616;52.470;13.436;2023-06-04T09:51:50;19.90;99.90
24436;DHT22;12616;52.470;13.436;2023-06-04T09:54:18;19.70;99.90
24436;DHT22;12616;52.470;13.436;2023-06-04T09:56:45;20.10;99.90
24436;DHT22;12616;52.470;13.436;2023-06-04T09:59:13;19.90;99.90
24436;DHT22;12616;52.470;13.436;2023-06-04T10:01:41;19.90;99.90
24436;DHT22;12616;52.470;13.436;2023-06-04T10:04:09;19.90;99.90
24436;DHT22;12616;52.470;13.436;2023-06-04T10:06:39;19.90;99.90
24436;DHT22;12616;52.470;13.436;2023-06-04T10:09:07;20.00;99.90
24436;DHT22;12616;52.470;13.436;2023-06-04T10:11:38;20.00;99.90
24436;DHT22;12616;52.470;13.436;2023-06-04T10:14:12;20.00;99.90
24436;DHT22;12616;52.470;13.436;2023-06-04T10:16:41;20.10;99.90
24436;DHT22;12616;52.470;13.436;2023-06-04T10:19:09;20.00;99.90
24436;DHT22;12616;52.470;13.436;2023-06-04T10:21:37;20.10;99.90
24436;DHT22;12616;52.470;13.436;2023-06-04T10:24:05;20.10;99.90
24436;DHT22;12616;52.470;13.436;2023-06-04T10:26:33;20.20;99.90
24436;DHT22;12616;52.470;13.436;2023-06-04T10:29:02;20.20;99.90
24436;DHT22;12616;52.470;13.436;2023-06-04T10:31:29;20.20;99.90
24436;DHT22;12616;52.470;13.436;2023-06-04T10:33:56;19.90;99.90
24436;DHT22;12616;52.470;13.436;2023-06-04T10:36:24;20.00;99.90
24436;DHT22;12616;52.470;13.436;2023-06-04T10:38:52;20.00;99.90
24436;DHT22;12616;52.470;13.436;2023-06-04T10:41:20;20.10;99.90
24436;DHT22;12616;52.470;13.436;2023-06-04T10:43:49;20.20;99.90
24436;DHT22;12616;52.470;13.436;2023-06-04T10:46:18;20.30;99.90
24436;DHT22;12616;52.470;13.436;2023-06-04T10:48:47;20.40;99.90
24436;DHT22;12616;52.470;13.436;2023-06-04T10:51:15;20.40;99.90
24436;DHT22;12616;52.470;13.436;2023-06-04T10:53:42;20.50;99.90
24436;DHT22;12616;52.470;13.436;2023-06-04T10:56:09;20.50;99.90
24436;DHT22;12616;52.470;13.436;2023-06-04T10:58:36;20.60;99.90
24436;DHT22;12616;52.470;13.436;2023-06-04T11:01:03;20.60;99.90
24436;DHT22;12616;52.470;13.436;2023-06-04T11:03:37;20.80;99.90
24436;DHT22;12616;52.470;13.436;2023-06-04T11:06:15;20.60;99.90
24436;DHT22;12616;52.470;13.436;2023-06-04T11:08:43;20.70;99.90
24436;DHT22;12616;52.470;13.436;2023-06-04T11:11:14;20.80;99.90
24436;DHT22;12616;52.470;13.436;2023-06-04T11:13:41;20.80;99.90
24436;DHT22;12616;52.470;13.436;2023-06-04T11:16:15;20.80;99.90
24436;DHT22;12616;52.470;13.436;2023-06-04T11:18:53;20.80;99.90
24436;DHT22;12616;52.470;13.436;2023-06-04T11:21:20;21.00;99.90
24436;DHT22;12616;52.470;13.436;2023-06-04T11:23:47;20.70;99.90
24436;DHT22;12616;52.470;13.436;2023-06-04T11:26:14;20.50;99.90
24436;DHT22;12616;52.470;13.436;2023-06-04T11:28:41;20.80;99.90
24436;DHT22;12616;52.470;13.436;2023-06-04T11:31:08;20.80;99.90
24436;DHT22;12616;52.470;13.436;2023-06-04T11:33:43;20.70;99.90
24436;DHT22;12616;52.470;13.436;2023-06-04T11:36:10;20.80;99.90
24436;DHT22;12616;52.470;13.436;2023-06-04T11:38:37;20.80;99.90
24436;DHT22;12616;52.470;13.436;2023-06-04T11:41:04;20.80;99.90
24436;DHT22;12616;52.470;13.436;2023-06-04T11:43:32;20.80;99.90
24436;DHT22;12616;52.470;13.436;2023-06-04T11:46:05;20.80;99.90
24436;DHT22;12616;52.470;13.436;2023-06-04T11:48:32;20.80;99.90
24436;DHT22;12616;52.470;13.436;2023-06-04T11:51:06;20.80;99.90
24436;DHT22;12616;52.470;13.436;2023-06-04T11:53:36;20.90;99.90
24436;DHT22;12616;52.470;13.436;2023-06-04T11:56:04;20.90;99.90
24436;DHT22;12616;52.470;13.436;2023-06-04T11:58:31;20.90;99.90
24436;DHT22;12616;52.470;13.436;2023-06-04T12:00:59;20.90;99.90
24436;DHT22;12616;52.470;13.436;2023-06-04T12:03:34;21.00;99.90
24436;DHT22;12616;52.470;13.436;2023-06-04T12:06:12;21.00;99.90
24436;DHT22;12616;52.470;13.436;2023-06-04T12:08:46;21.10;99.90
24436;DHT22;12616;52.470;13.436;2023-06-04T12:11:25;21.20;99.90
24436;DHT22;12616;52.470;13.436;2023-06-04T12:13:53;21.30;99.90
24436;DHT22;12616;52.470;13.436;2023-06-04T12:16:20;21.30;99.90
24436;DHT22;12616;52.470;13.436;2023-06-04T12:18:47;21.40;99.90
24436;DHT22;12616;52.470;13.436;2023-06-04T12:21:21;21.50;99.90
24436;DHT22;12616;52.470;13.436;2023-06-04T12:23:53;21.50;99.90
24436;DHT22;12616;52.470;13.436;2023-06-04T12:26:23;21.50;99.90
24436;DHT22;12616;52.470;13.436;2023-06-04T12:29:01;21.50;99.90
24436;DHT22;12616;52.470;13.436;2023-06-04T12:31:28;21.60;99.90
24436;DHT22;12616;52.470;13.436;2023-06-04T12:34:01;21.50;99.90
24436;DHT22;12616;52.470;13.436;2023-06-04T12:36:29;21.60;99.90
24436;DHT22;12616;52.470;13.436;2023-06-04T12:38:58;21.50;99.90
24436;DHT22;12616;52.470;13.436;2023-06-04T12:41:26;21.60;99.90
24436;DHT22;12616;52.470;13.436;2023-06-04T12:43:53;21.60;99.90
24436;DHT22;12616;52.470;13.436;2023-06-04T12:46:20;21.70;99.90
24436;DHT22;12616;52.470;13.436;2023-06-04T12:48:47;21.70;99.90
24436;DHT22;12616;52.470;13.436;2023-06-04T12:51:14;21.60;99.90
24436;DHT22;12616;52.470;13.436;2023-06-04T12:53:42;21.70;99.90
24436;DHT22;12616;52.470;13.436;2023-06-04T12:56:09;21.70;99.90
24436;DHT22;12616;52.470;13.436;2023-06-04T12:58:36;21.60;99.90
24436;DHT22;12616;52.470;13.436;2023-06-04T13:01:04;21.60;99.90
24436;DHT22;12616;52.470;13.436;2023-06-04T13:03:31;21.60;99.90
24436;DHT22;12616;52.470;13.436;2023-06-04T13:05:58;21.70;99.90
24436;DHT22;12616;52.470;13.436;2023-06-04T13:08:25;21.70;99.90
24436;DHT22;12616;52.470;13.436;2023-06-04T13:10:53;21.70;99.90
24436;DHT22;12616;52.470;13.436;2023-06-04T13:13:20;21.70;99.90
24436;DHT22;12616;52.470;13.436;2023-06-04T13:15:47;22.20;99.90
24436;DHT22;12616;52.470;13.436;2023-06-04T13:18:14;21.80;99.90
24436;DHT22;12616;52.470;13.436;2023-06-04T13:20:41;21.70;99.90
24436;DHT22;12616;52.470;13.436;2023-06-04T13:23:08;21.80;99.90
24436;DHT22;12616;52.470;13.436;2023-06-04T13:25:37;21.90;99.90
24436;DHT22;12616;52.470;13.436;2023-06-04T13:28:05;22.00;99.90
24436;DHT22;12616;52.470;13.436;2023-06-04T13:30:34;22.10;99.90
24436;DHT22;12616;52.470;13.436;2023-06-04T13:33:01;22.10;99.90
24436;DHT22;12616;52.470;13.436;2023-06-04T13:35:28;22.10;99.90
24436;DHT22;12616;52.470;13.436;2023-06-04T13:37:55;22.10;99.90
24436;DHT22;12616;52.470;13.436;2023-06-04T13:40:22;22.20;99.90
24436;DHT22;12616;52.470;13.436;2023-06-04T13:42:49;22.10;99.90
24436;DHT22;12616;52.470;13.436;2023-06-04T13:45:17;22.20;99.90
24436;DHT22;12616;52.470;13.436;2023-06-04T13:47:45;22.30;99.90
24436;DHT22;12616;52.470;13.436;2023-06-04T13:50:13;22.40;99.90
24436;DHT22;12616;52.470;13.436;2023-06-04T13:52:40;22.00;99.90
24436;DHT22;12616;52.470;13.436;2023-06-04T13:55:08;22.30;99.90
24436;DHT22;12616;52.470;13.436;2023-06-04T13:57:34;22.50;99.90
24436;DHT22;12616;52.470;13.436;2023-06-04T14:00:02;22.30;99.90
24436;DHT22;12616;52.470;13.436;2023-06-04T14:02:31;22.20;99.90
24436;DHT22;12616;52.470;13.436;2023-06-04T14:04:58;22.40;99.90
24436;DHT22;12616;52.470;13.436;2023-06-04T14:07:25;22.40;99.90
24436;DHT22;12616;52.470;13.436;2023-06-04T14:09:52;22.30;99.90
24436;DHT22;12616;52.470;13.436;2023-06-04T14:12:21;22.40;99.90
24436;DHT22;12616;52.470;13.436;2023-06-04T14:14:47;22.30;99.90
24436;DHT22;12616;52.470;13.436;2023-06-04T14:17:14;22.40;99.90
24436;DHT22;12616;52.470;13.436;2023-06-04T14:19:43;22.40;99.90
24436;DHT22;12616;52.470;13.436;2023-06-04T14:22:10;22.50;99.90
24436;DHT22;12616;52.470;13.436;2023-06-04T14:24:40;22.50;99.90
24436;DHT22;12616;52.470;13.436;2023-06-04T14:27:07;22.50;99.90
24436;DHT22;12616;52.470;13.436;2023-06-04T14:29:35;22.50;99.90
24436;DHT22;12616;52.470;13.436;2023-06-04T14:32:02;22.50;99.90
24436;DHT22;12616;52.470;13.436;2023-06-04T14:34:29;22.40;99.90
24436;DHT22;12616;52.470;13.436;2023-06-04T14:36:59;22.40;99.90
24436;DHT22;12616;52.470;13.436;2023-06-04T14:39:26;22.40;99.90
24436;DHT22;12616;52.470;13.436;2023-06-04T14:41:53;22.40;99.90
24436;DHT22;12616;52.470;13.436;2023-06-04T14:44:20;22.40;99.90
24436;DHT22;12616;52.470;13.436;2023-06-04T14:46:49;22.50;99.90
24436;DHT22;12616;52.470;13.436;2023-06-04T14:49:16;22.50;99.90
24436;DHT22;12616;52.470;13.436;2023-06-04T14:51:43;22.60;99.90
24436;DHT22;12616;52.470;13.436;2023-06-04T14:54:11;22.50;99.90
24436;DHT22;12616;52.470;13.436;2023-06-04T14:56:38;22.50;99.90
24436;DHT22;12616;52.470;13.436;2023-06-04T14:59:05;22.50;99.90
24436;DHT22;12616;52.470;13.436;2023-06-04T15:01:34;22.50;99.90
24436;DHT22;12616;52.470;13.436;2023-06-04T15:04:01;22.50;99.90
24436;DHT22;12616;52.470;13.436;2023-06-04T15:06:28;22.50;99.90
24436;DHT22;12616;52.470;13.436;2023-06-04T15:08:55;22.50;99.90
24436;DHT22;12616;52.470;13.436;2023-06-04T15:11:23;22.60;99.90
24436;DHT22;12616;52.470;13.436;2023-06-04T15:13:51;22.60;99.90
24436;DHT22;12616;52.470;13.436;2023-06-04T15:16:18;22.60;99.90
24436;DHT22;12616;52.470;13.436;2023-06-04T15:18:45;22.50;99.90
24436;DHT22;12616;52.470;13.436;2023-06-04T15:21:12;22.20;99.90
24436;DHT22;12616;52.470;13.436;2023-06-04T15:23:40;22.40;99.90
24436;DHT22;12616;52.470;13.436;2023-06-04T15:26:09;22.50;99.90
24436;DHT22;12616;52.470;13.436;2023-06-04T15:28:38;22.40;99.90